<?xml version="1.0" encoding="UTF-8" standalone="no" ?>
<gpx xmlns="http://www.topografix.com/GPX/1/1" xmlns:xsi="http://www.w3.org/2001/XMLSchema-instance" xsi:schemaLocation="http://www.topografix.com/GPX/1/1 http://www.topografix.com/GPX/1/1/gpx.xsd" version="1.1" creator="VisuGPX - https://www.visugpx.com">
  <metadata>
    <name>Pic de Maupas J2</name>
    <desc><![CDATA[Deuxième journée, montée au Pic de Maupas. Le GPS s'est un peu paumé et j'ai eu des soucis de batterie, ce qui explique le trace un peu moisie.]]></desc>
  </metadata>
  <trk>
    <name><![CDATA[19033102]]></name>
    <trkseg>
      <trkpt lat="42.71418" lon="0.55156">
        <ele>2472.328</ele>
        <time>2019-03-31T05:27:58Z</time>
      </trkpt>
      <trkpt lat="42.71418" lon="0.55148">
        <ele>2472.172</ele>
        <time>2019-03-31T05:28:10.3Z</time>
      </trkpt>
      <trkpt lat="42.71387" lon="0.55167">
        <ele>2470.059</ele>
        <time>2019-03-31T05:28:40Z</time>
      </trkpt>
      <trkpt lat="42.71362" lon="0.55203">
        <ele>2475.204</ele>
        <time>2019-03-31T05:29:10Z</time>
      </trkpt>
      <trkpt lat="42.71357" lon="0.55228">
        <ele>2480.734</ele>
        <time>2019-03-31T05:29:40Z</time>
      </trkpt>
      <trkpt lat="42.71347" lon="0.55253">
        <ele>2486.163</ele>
        <time>2019-03-31T05:30:10Z</time>
      </trkpt>
      <trkpt lat="42.71335" lon="0.55266">
        <ele>2490.005</ele>
        <time>2019-03-31T05:30:40Z</time>
      </trkpt>
      <trkpt lat="42.71331" lon="0.55246">
        <ele>2492.356</ele>
        <time>2019-03-31T05:31:10Z</time>
      </trkpt>
      <trkpt lat="42.71324" lon="0.5523">
        <ele>2496.797</ele>
        <time>2019-03-31T05:31:40Z</time>
      </trkpt>
      <trkpt lat="42.71313" lon="0.55213">
        <ele>2501.673</ele>
        <time>2019-03-31T05:32:10Z</time>
      </trkpt>
      <trkpt lat="42.71305" lon="0.55199">
        <ele>2505.412</ele>
        <time>2019-03-31T05:32:40Z</time>
      </trkpt>
      <trkpt lat="42.71297" lon="0.55186">
        <ele>2509.901</ele>
        <time>2019-03-31T05:33:10Z</time>
      </trkpt>
      <trkpt lat="42.71289" lon="0.55176">
        <ele>2514.16</ele>
        <time>2019-03-31T05:33:40Z</time>
      </trkpt>
      <trkpt lat="42.71313" lon="0.55155">
        <ele>2498.008</ele>
        <time>2019-03-31T05:34:25.3Z</time>
      </trkpt>
      <trkpt lat="42.71295" lon="0.55161">
        <ele>2509.674</ele>
        <time>2019-03-31T05:34:54.2Z</time>
      </trkpt>
      <trkpt lat="42.71304" lon="0.55159">
        <ele>2504.154</ele>
        <time>2019-03-31T05:35:29.3Z</time>
      </trkpt>
      <trkpt lat="42.71275" lon="0.55198">
        <ele>2522.18</ele>
        <time>2019-03-31T05:36:00Z</time>
      </trkpt>
      <trkpt lat="42.71267" lon="0.55202">
        <ele>2526.83</ele>
        <time>2019-03-31T05:36:30Z</time>
      </trkpt>
      <trkpt lat="42.71259" lon="0.55201">
        <ele>2530.91</ele>
        <time>2019-03-31T05:37:00Z</time>
      </trkpt>
      <trkpt lat="42.71252" lon="0.55192">
        <ele>2534.74</ele>
        <time>2019-03-31T05:37:30Z</time>
      </trkpt>
      <trkpt lat="42.71245" lon="0.55175">
        <ele>2538.316</ele>
        <time>2019-03-31T05:38:00Z</time>
      </trkpt>
      <trkpt lat="42.71238" lon="0.55167">
        <ele>2541.463</ele>
        <time>2019-03-31T05:38:30Z</time>
      </trkpt>
      <trkpt lat="42.71231" lon="0.55152">
        <ele>2544.367</ele>
        <time>2019-03-31T05:39:00Z</time>
      </trkpt>
      <trkpt lat="42.71228" lon="0.55147">
        <ele>2545.702</ele>
        <time>2019-03-31T05:39:30Z</time>
      </trkpt>
      <trkpt lat="42.71224" lon="0.55145">
        <ele>2547.179</ele>
        <time>2019-03-31T05:40:00Z</time>
      </trkpt>
      <trkpt lat="42.71218" lon="0.55164">
        <ele>2550.509</ele>
        <time>2019-03-31T05:40:30Z</time>
      </trkpt>
      <trkpt lat="42.7121" lon="0.55168">
        <ele>2553.314</ele>
        <time>2019-03-31T05:41:00Z</time>
      </trkpt>
      <trkpt lat="42.71205" lon="0.55162">
        <ele>2555.263</ele>
        <time>2019-03-31T05:41:30Z</time>
      </trkpt>
      <trkpt lat="42.71202" lon="0.55169">
        <ele>2556.245</ele>
        <time>2019-03-31T05:42:12.1Z</time>
      </trkpt>
      <trkpt lat="42.71198" lon="0.55183">
        <ele>2557.851</ele>
        <time>2019-03-31T05:45:09.6Z</time>
      </trkpt>
      <trkpt lat="42.71182" lon="0.55168">
        <ele>2562.745</ele>
        <time>2019-03-31T05:45:37Z</time>
      </trkpt>
      <trkpt lat="42.70774" lon="0.55049">
        <ele>2715.145</ele>
        <time>2019-03-31T06:13:38.1Z</time>
      </trkpt>
      <trkpt lat="42.70736" lon="0.55067">
        <ele>2734.97</ele>
        <time>2019-03-31T06:14:08Z</time>
      </trkpt>
      <trkpt lat="42.70723" lon="0.55077">
        <ele>2740.31</ele>
        <time>2019-03-31T06:14:38Z</time>
      </trkpt>
      <trkpt lat="42.70718" lon="0.55075">
        <ele>2742.77</ele>
        <time>2019-03-31T06:15:08Z</time>
      </trkpt>
      <trkpt lat="42.70711" lon="0.55085">
        <ele>2744.692</ele>
        <time>2019-03-31T06:15:38Z</time>
      </trkpt>
      <trkpt lat="42.707" lon="0.55081">
        <ele>2749.843</ele>
        <time>2019-03-31T06:16:08Z</time>
      </trkpt>
      <trkpt lat="42.70689" lon="0.55074">
        <ele>2754.42</ele>
        <time>2019-03-31T06:16:38Z</time>
      </trkpt>
      <trkpt lat="42.70679" lon="0.55069">
        <ele>2758.184</ele>
        <time>2019-03-31T06:17:08Z</time>
      </trkpt>
      <trkpt lat="42.70668" lon="0.55064">
        <ele>2761.907</ele>
        <time>2019-03-31T06:17:38Z</time>
      </trkpt>
      <trkpt lat="42.70657" lon="0.5506">
        <ele>2765.347</ele>
        <time>2019-03-31T06:18:08Z</time>
      </trkpt>
      <trkpt lat="42.70649" lon="0.55055">
        <ele>2768.215</ele>
        <time>2019-03-31T06:18:38Z</time>
      </trkpt>
      <trkpt lat="42.70641" lon="0.55049">
        <ele>2771.887</ele>
        <time>2019-03-31T06:19:08Z</time>
      </trkpt>
      <trkpt lat="42.70631" lon="0.55039">
        <ele>2776.154</ele>
        <time>2019-03-31T06:19:38Z</time>
      </trkpt>
      <trkpt lat="42.7062" lon="0.55028">
        <ele>2780.003</ele>
        <time>2019-03-31T06:20:08Z</time>
      </trkpt>
      <trkpt lat="42.70608" lon="0.55023">
        <ele>2785.1</ele>
        <time>2019-03-31T06:20:38Z</time>
      </trkpt>
      <trkpt lat="42.70595" lon="0.55016">
        <ele>2791.1</ele>
        <time>2019-03-31T06:21:08Z</time>
      </trkpt>
      <trkpt lat="42.70583" lon="0.55014">
        <ele>2795.361</ele>
        <time>2019-03-31T06:21:38Z</time>
      </trkpt>
      <trkpt lat="42.70574" lon="0.55013">
        <ele>2793.575</ele>
        <time>2019-03-31T06:22:08Z</time>
      </trkpt>
      <trkpt lat="42.70573" lon="0.55012">
        <ele>2793.64</ele>
        <time>2019-03-31T06:24:00Z</time>
      </trkpt>
      <trkpt lat="42.70322" lon="0.54356">
        <ele>2783.183</ele>
        <time>2019-03-31T06:46:57.2Z</time>
      </trkpt>
      <trkpt lat="42.70321" lon="0.5436">
        <ele>2784.359</ele>
        <time>2019-03-31T06:47:06.6Z</time>
      </trkpt>
      <trkpt lat="42.70345" lon="0.54431">
        <ele>2859.709</ele>
        <time>2019-03-31T06:47:22Z</time>
      </trkpt>
      <trkpt lat="42.70351" lon="0.54458">
        <ele>2884.056</ele>
        <time>2019-03-31T06:47:52Z</time>
      </trkpt>
      <trkpt lat="42.7035" lon="0.54473">
        <ele>2901.938</ele>
        <time>2019-03-31T06:48:22Z</time>
      </trkpt>
      <trkpt lat="42.70345" lon="0.54475">
        <ele>2906.397</ele>
        <time>2019-03-31T06:48:52Z</time>
      </trkpt>
      <trkpt lat="42.70345" lon="0.54477">
        <ele>2908.419</ele>
        <time>2019-03-31T06:49:22.1Z</time>
      </trkpt>
      <trkpt lat="42.70357" lon="0.54473">
        <ele>2896.887</ele>
        <time>2019-03-31T06:49:52Z</time>
      </trkpt>
      <trkpt lat="42.70376" lon="0.54465">
        <ele>2873.164</ele>
        <time>2019-03-31T06:50:22Z</time>
      </trkpt>
      <trkpt lat="42.70375" lon="0.54465">
        <ele>2872.67</ele>
        <time>2019-03-31T06:50:52Z</time>
      </trkpt>
      <trkpt lat="42.70369" lon="0.5446">
        <ele>2871.589</ele>
        <time>2019-03-31T06:51:22Z</time>
      </trkpt>
      <trkpt lat="42.70373" lon="0.54453">
        <ele>2859.672</ele>
        <time>2019-03-31T06:51:52Z</time>
      </trkpt>
      <trkpt lat="42.70375" lon="0.54446">
        <ele>2847.462</ele>
        <time>2019-03-31T06:52:52Z</time>
      </trkpt>
      <trkpt lat="42.70382" lon="0.54454">
        <ele>2853.286</ele>
        <time>2019-03-31T06:53:22Z</time>
      </trkpt>
      <trkpt lat="42.70371" lon="0.54454">
        <ele>2862.881</ele>
        <time>2019-03-31T06:53:52Z</time>
      </trkpt>
      <trkpt lat="42.70369" lon="0.54457">
        <ele>2868.008</ele>
        <time>2019-03-31T06:54:22Z</time>
      </trkpt>
      <trkpt lat="42.70373" lon="0.54641">
        <ele>2934.177</ele>
        <time>2019-03-31T06:55:05.4Z</time>
      </trkpt>
      <trkpt lat="42.70361" lon="0.54622">
        <ele>2945.956</ele>
        <time>2019-03-31T06:55:08Z</time>
      </trkpt>
      <trkpt lat="42.7037" lon="0.54616">
        <ele>2944.973</ele>
        <time>2019-03-31T06:55:38Z</time>
      </trkpt>
      <trkpt lat="42.70371" lon="0.54628">
        <ele>2940.008</ele>
        <time>2019-03-31T06:56:08Z</time>
      </trkpt>
      <trkpt lat="42.70372" lon="0.5463">
        <ele>2938.922</ele>
        <time>2019-03-31T06:56:38Z</time>
      </trkpt>
      <trkpt lat="42.70372" lon="0.54631">
        <ele>2938.316</ele>
        <time>2019-03-31T06:57:08Z</time>
      </trkpt>
      <trkpt lat="42.7037" lon="0.54628">
        <ele>2940.06</ele>
        <time>2019-03-31T06:57:38Z</time>
      </trkpt>
      <trkpt lat="42.7037" lon="0.54627">
        <ele>2940.554</ele>
        <time>2019-03-31T06:58:08Z</time>
      </trkpt>
      <trkpt lat="42.70369" lon="0.54627">
        <ele>2941.149</ele>
        <time>2019-03-31T06:58:38Z</time>
      </trkpt>
      <trkpt lat="42.70369" lon="0.54627">
        <ele>2941.215</ele>
        <time>2019-03-31T06:59:08Z</time>
      </trkpt>
      <trkpt lat="42.70369" lon="0.54627">
        <ele>2941.215</ele>
        <time>2019-03-31T06:59:38Z</time>
      </trkpt>
      <trkpt lat="42.70369" lon="0.54627">
        <ele>2941.215</ele>
        <time>2019-03-31T07:00:08Z</time>
      </trkpt>
      <trkpt lat="42.70369" lon="0.54627">
        <ele>2941.215</ele>
        <time>2019-03-31T07:00:38Z</time>
      </trkpt>
      <trkpt lat="42.70369" lon="0.54626">
        <ele>2941.341</ele>
        <time>2019-03-31T07:01:08Z</time>
      </trkpt>
      <trkpt lat="42.70368" lon="0.5463">
        <ele>2940.255</ele>
        <time>2019-03-31T07:01:38Z</time>
      </trkpt>
      <trkpt lat="42.70368" lon="0.54619">
        <ele>2944.413</ele>
        <time>2019-03-31T07:02:08Z</time>
      </trkpt>
      <trkpt lat="42.70366" lon="0.54621">
        <ele>2944.403</ele>
        <time>2019-03-31T07:02:38Z</time>
      </trkpt>
      <trkpt lat="42.70366" lon="0.5462">
        <ele>2944.909</ele>
        <time>2019-03-31T07:03:08Z</time>
      </trkpt>
      <trkpt lat="42.70367" lon="0.54621">
        <ele>2943.905</ele>
        <time>2019-03-31T07:03:38Z</time>
      </trkpt>
      <trkpt lat="42.70376" lon="0.54623">
        <ele>2939.917</ele>
        <time>2019-03-31T07:04:08Z</time>
      </trkpt>
      <trkpt lat="42.70379" lon="0.54623">
        <ele>2938.698</ele>
        <time>2019-03-31T07:04:38Z</time>
      </trkpt>
      <trkpt lat="42.70379" lon="0.54623">
        <ele>2938.757</ele>
        <time>2019-03-31T07:05:08Z</time>
      </trkpt>
      <trkpt lat="42.70379" lon="0.54623">
        <ele>2938.818</ele>
        <time>2019-03-31T07:05:38Z</time>
      </trkpt>
      <trkpt lat="42.70376" lon="0.54625">
        <ele>2939.02</ele>
        <time>2019-03-31T07:06:08Z</time>
      </trkpt>
      <trkpt lat="42.70371" lon="0.54626">
        <ele>2940.448</ele>
        <time>2019-03-31T07:06:38Z</time>
      </trkpt>
      <trkpt lat="42.70371" lon="0.54625">
        <ele>2940.938</ele>
        <time>2019-03-31T07:07:08Z</time>
      </trkpt>
      <trkpt lat="42.70371" lon="0.54625">
        <ele>2941.12</ele>
        <time>2019-03-31T07:07:38Z</time>
      </trkpt>
      <trkpt lat="42.70369" lon="0.54624">
        <ele>2942.096</ele>
        <time>2019-03-31T07:08:08Z</time>
      </trkpt>
      <trkpt lat="42.70363" lon="0.54623">
        <ele>2944.611</ele>
        <time>2019-03-31T07:08:38Z</time>
      </trkpt>
      <trkpt lat="42.70364" lon="0.54622">
        <ele>2944.568</ele>
        <time>2019-03-31T07:09:08Z</time>
      </trkpt>
      <trkpt lat="42.70368" lon="0.54623">
        <ele>2942.65</ele>
        <time>2019-03-31T07:09:38Z</time>
      </trkpt>
      <trkpt lat="42.70365" lon="0.54619">
        <ele>2945.67</ele>
        <time>2019-03-31T07:10:08Z</time>
      </trkpt>
      <trkpt lat="42.70364" lon="0.54617">
        <ele>2946.89</ele>
        <time>2019-03-31T07:10:38Z</time>
      </trkpt>
      <trkpt lat="42.70363" lon="0.54618">
        <ele>2946.688</ele>
        <time>2019-03-31T07:11:08Z</time>
      </trkpt>
      <trkpt lat="42.70362" lon="0.54618">
        <ele>2946.875</ele>
        <time>2019-03-31T07:11:38Z</time>
      </trkpt>
      <trkpt lat="42.70362" lon="0.54619">
        <ele>2946.67</ele>
        <time>2019-03-31T07:12:08Z</time>
      </trkpt>
      <trkpt lat="42.70358" lon="0.54617">
        <ele>2948.61</ele>
        <time>2019-03-31T07:12:38Z</time>
      </trkpt>
      <trkpt lat="42.70355" lon="0.54616">
        <ele>2950.492</ele>
        <time>2019-03-31T07:13:08Z</time>
      </trkpt>
      <trkpt lat="42.70348" lon="0.5462">
        <ele>2950.933</ele>
        <time>2019-03-31T07:13:38Z</time>
      </trkpt>
      <trkpt lat="42.70339" lon="0.54617">
        <ele>2954.728</ele>
        <time>2019-03-31T07:14:36Z</time>
      </trkpt>
      <trkpt lat="42.7034" lon="0.54621">
        <ele>2952.854</ele>
        <time>2019-03-31T07:15:06Z</time>
      </trkpt>
      <trkpt lat="42.70339" lon="0.54621">
        <ele>2952.944</ele>
        <time>2019-03-31T07:15:36Z</time>
      </trkpt>
      <trkpt lat="42.70338" lon="0.54616">
        <ele>2955.601</ele>
        <time>2019-03-31T07:16:06Z</time>
      </trkpt>
      <trkpt lat="42.70339" lon="0.54615">
        <ele>2956.116</ele>
        <time>2019-03-31T07:16:36Z</time>
      </trkpt>
      <trkpt lat="42.70334" lon="0.54616">
        <ele>2957.394</ele>
        <time>2019-03-31T07:17:06Z</time>
      </trkpt>
      <trkpt lat="42.70331" lon="0.54617">
        <ele>2958.674</ele>
        <time>2019-03-31T07:17:36Z</time>
      </trkpt>
      <trkpt lat="42.70327" lon="0.54616">
        <ele>2961.203</ele>
        <time>2019-03-31T07:18:06Z</time>
      </trkpt>
      <trkpt lat="42.70326" lon="0.54616">
        <ele>2961.873</ele>
        <time>2019-03-31T07:18:36Z</time>
      </trkpt>
      <trkpt lat="42.70325" lon="0.54619">
        <ele>2961.414</ele>
        <time>2019-03-31T07:19:06Z</time>
      </trkpt>
      <trkpt lat="42.70323" lon="0.54622">
        <ele>2961.085</ele>
        <time>2019-03-31T07:19:36Z</time>
      </trkpt>
      <trkpt lat="42.7032" lon="0.54621">
        <ele>2963.314</ele>
        <time>2019-03-31T07:20:06Z</time>
      </trkpt>
      <trkpt lat="42.70313" lon="0.54617">
        <ele>2970.516</ele>
        <time>2019-03-31T07:20:36Z</time>
      </trkpt>
      <trkpt lat="42.70312" lon="0.54615">
        <ele>2972.389</ele>
        <time>2019-03-31T07:21:06Z</time>
      </trkpt>
      <trkpt lat="42.70305" lon="0.54612">
        <ele>2978.602</ele>
        <time>2019-03-31T07:21:36Z</time>
      </trkpt>
      <trkpt lat="42.70301" lon="0.5461">
        <ele>2982.939</ele>
        <time>2019-03-31T07:22:06Z</time>
      </trkpt>
      <trkpt lat="42.70296" lon="0.54609">
        <ele>2987.399</ele>
        <time>2019-03-31T07:22:36Z</time>
      </trkpt>
      <trkpt lat="42.70293" lon="0.54598">
        <ele>2990.023</ele>
        <time>2019-03-31T07:23:50.2Z</time>
      </trkpt>
      <trkpt lat="42.70292" lon="0.54611">
        <ele>2991.49</ele>
        <time>2019-03-31T07:23:54.5Z</time>
      </trkpt>
      <trkpt lat="42.70285" lon="0.54613">
        <ele>2996.392</ele>
        <time>2019-03-31T07:24:24Z</time>
      </trkpt>
      <trkpt lat="42.7028" lon="0.54612">
        <ele>3001.912</ele>
        <time>2019-03-31T07:24:54Z</time>
      </trkpt>
      <trkpt lat="42.7028" lon="0.54612">
        <ele>3001.258</ele>
        <time>2019-03-31T07:25:24Z</time>
      </trkpt>
      <trkpt lat="42.70278" lon="0.5461">
        <ele>3003.547</ele>
        <time>2019-03-31T07:25:54Z</time>
      </trkpt>
      <trkpt lat="42.70278" lon="0.5461">
        <ele>3004.015</ele>
        <time>2019-03-31T07:26:24Z</time>
      </trkpt>
      <trkpt lat="42.70277" lon="0.54611">
        <ele>3004.52</ele>
        <time>2019-03-31T07:26:54Z</time>
      </trkpt>
      <trkpt lat="42.70277" lon="0.54611">
        <ele>3004.393</ele>
        <time>2019-03-31T07:27:24Z</time>
      </trkpt>
      <trkpt lat="42.70277" lon="0.54611">
        <ele>3004.494</ele>
        <time>2019-03-31T07:27:54Z</time>
      </trkpt>
      <trkpt lat="42.70274" lon="0.54613">
        <ele>3006.244</ele>
        <time>2019-03-31T07:28:24Z</time>
      </trkpt>
      <trkpt lat="42.70268" lon="0.54615">
        <ele>3010.319</ele>
        <time>2019-03-31T07:28:54Z</time>
      </trkpt>
      <trkpt lat="42.70266" lon="0.54614">
        <ele>3012.714</ele>
        <time>2019-03-31T07:29:24Z</time>
      </trkpt>
      <trkpt lat="42.70261" lon="0.54615">
        <ele>3016.629</ele>
        <time>2019-03-31T07:29:54Z</time>
      </trkpt>
      <trkpt lat="42.70259" lon="0.54616">
        <ele>3017.67</ele>
        <time>2019-03-31T07:30:24Z</time>
      </trkpt>
      <trkpt lat="42.70255" lon="0.54615">
        <ele>3022.136</ele>
        <time>2019-03-31T07:30:54Z</time>
      </trkpt>
      <trkpt lat="42.7025" lon="0.54614">
        <ele>3026.848</ele>
        <time>2019-03-31T07:31:24Z</time>
      </trkpt>
      <trkpt lat="42.70248" lon="0.54616">
        <ele>3027.201</ele>
        <time>2019-03-31T07:31:54Z</time>
      </trkpt>
      <trkpt lat="42.70238" lon="0.54617">
        <ele>3032.577</ele>
        <time>2019-03-31T07:32:24Z</time>
      </trkpt>
      <trkpt lat="42.70228" lon="0.54614">
        <ele>3038.732</ele>
        <time>2019-03-31T07:32:54Z</time>
      </trkpt>
      <trkpt lat="42.70222" lon="0.54617">
        <ele>3041.083</ele>
        <time>2019-03-31T07:33:24Z</time>
      </trkpt>
      <trkpt lat="42.70217" lon="0.54617">
        <ele>3044.513</ele>
        <time>2019-03-31T07:33:54Z</time>
      </trkpt>
      <trkpt lat="42.7021" lon="0.54618">
        <ele>3048.582</ele>
        <time>2019-03-31T07:34:24Z</time>
      </trkpt>
      <trkpt lat="42.70204" lon="0.54616">
        <ele>3053.668</ele>
        <time>2019-03-31T07:34:54Z</time>
      </trkpt>
      <trkpt lat="42.70198" lon="0.54617">
        <ele>3056.656</ele>
        <time>2019-03-31T07:35:24Z</time>
      </trkpt>
      <trkpt lat="42.70193" lon="0.54614">
        <ele>3062.117</ele>
        <time>2019-03-31T07:35:54Z</time>
      </trkpt>
      <trkpt lat="42.70184" lon="0.54606">
        <ele>3069.262</ele>
        <time>2019-03-31T07:36:24Z</time>
      </trkpt>
      <trkpt lat="42.70178" lon="0.54601">
        <ele>3073.122</ele>
        <time>2019-03-31T07:36:54Z</time>
      </trkpt>
      <trkpt lat="42.70174" lon="0.54602">
        <ele>3076.896</ele>
        <time>2019-03-31T07:37:24Z</time>
      </trkpt>
      <trkpt lat="42.70172" lon="0.546">
        <ele>3078.251</ele>
        <time>2019-03-31T07:37:54Z</time>
      </trkpt>
      <trkpt lat="42.70172" lon="0.54601">
        <ele>3078.083</ele>
        <time>2019-03-31T07:38:24Z</time>
      </trkpt>
      <trkpt lat="42.70168" lon="0.54598">
        <ele>3081.013</ele>
        <time>2019-03-31T07:38:54Z</time>
      </trkpt>
      <trkpt lat="42.70161" lon="0.54604">
        <ele>3083.675</ele>
        <time>2019-03-31T07:39:24Z</time>
      </trkpt>
      <trkpt lat="42.70162" lon="0.54603">
        <ele>3083.529</ele>
        <time>2019-03-31T07:39:54Z</time>
      </trkpt>
      <trkpt lat="42.70161" lon="0.546">
        <ele>3083.58</ele>
        <time>2019-03-31T07:40:24Z</time>
      </trkpt>
      <trkpt lat="42.70158" lon="0.54599">
        <ele>3084.295</ele>
        <time>2019-03-31T07:40:54Z</time>
      </trkpt>
      <trkpt lat="42.70155" lon="0.54601">
        <ele>3084.878</ele>
        <time>2019-03-31T07:41:24Z</time>
      </trkpt>
      <trkpt lat="42.70153" lon="0.54599">
        <ele>3085.385</ele>
        <time>2019-03-31T07:41:54Z</time>
      </trkpt>
      <trkpt lat="42.70154" lon="0.54598">
        <ele>3085.352</ele>
        <time>2019-03-31T07:42:24Z</time>
      </trkpt>
      <trkpt lat="42.70151" lon="0.54595">
        <ele>3086.61</ele>
        <time>2019-03-31T07:42:54Z</time>
      </trkpt>
      <trkpt lat="42.70195" lon="0.54566">
        <ele>3051.304</ele>
        <time>2019-03-31T08:09:11.2Z</time>
      </trkpt>
      <trkpt lat="42.70179" lon="0.54592">
        <ele>3070.178</ele>
        <time>2019-03-31T08:09:26.2Z</time>
      </trkpt>
      <trkpt lat="42.70206" lon="0.54616">
        <ele>3052.072</ele>
        <time>2019-03-31T08:09:30Z</time>
      </trkpt>
      <trkpt lat="42.70233" lon="0.54621">
        <ele>3033.81</ele>
        <time>2019-03-31T08:10:00Z</time>
      </trkpt>
      <trkpt lat="42.7025" lon="0.54623">
        <ele>3022.67</ele>
        <time>2019-03-31T08:10:30Z</time>
      </trkpt>
      <trkpt lat="42.70245" lon="0.54618">
        <ele>3027.846</ele>
        <time>2019-03-31T08:11:00Z</time>
      </trkpt>
      <trkpt lat="42.70237" lon="0.54619">
        <ele>3031.666</ele>
        <time>2019-03-31T08:11:30Z</time>
      </trkpt>
      <trkpt lat="42.70237" lon="0.5462">
        <ele>3031.818</ele>
        <time>2019-03-31T08:12:00Z</time>
      </trkpt>
      <trkpt lat="42.70237" lon="0.54617">
        <ele>3032.566</ele>
        <time>2019-03-31T08:12:30Z</time>
      </trkpt>
      <trkpt lat="42.70237" lon="0.54617">
        <ele>3032.766</ele>
        <time>2019-03-31T08:13:00Z</time>
      </trkpt>
      <trkpt lat="42.70237" lon="0.54617">
        <ele>3032.851</ele>
        <time>2019-03-31T08:13:30Z</time>
      </trkpt>
      <trkpt lat="42.70237" lon="0.54617">
        <ele>3032.566</ele>
        <time>2019-03-31T08:14:00Z</time>
      </trkpt>
      <trkpt lat="42.70237" lon="0.54617">
        <ele>3032.623</ele>
        <time>2019-03-31T08:14:30Z</time>
      </trkpt>
      <trkpt lat="42.70239" lon="0.5462">
        <ele>3029.954</ele>
        <time>2019-03-31T08:15:00Z</time>
      </trkpt>
      <trkpt lat="42.7024" lon="0.54623">
        <ele>3028.753</ele>
        <time>2019-03-31T08:15:30Z</time>
      </trkpt>
      <trkpt lat="42.7024" lon="0.54624">
        <ele>3028.137</ele>
        <time>2019-03-31T08:16:00Z</time>
      </trkpt>
      <trkpt lat="42.70239" lon="0.54628">
        <ele>3027.517</ele>
        <time>2019-03-31T08:16:30Z</time>
      </trkpt>
      <trkpt lat="42.7024" lon="0.54625">
        <ele>3027.448</ele>
        <time>2019-03-31T08:17:00Z</time>
      </trkpt>
      <trkpt lat="42.70238" lon="0.54625">
        <ele>3028.708</ele>
        <time>2019-03-31T08:17:30Z</time>
      </trkpt>
      <trkpt lat="42.70241" lon="0.54621">
        <ele>3028.524</ele>
        <time>2019-03-31T08:18:00Z</time>
      </trkpt>
      <trkpt lat="42.70247" lon="0.54618">
        <ele>3026.407</ele>
        <time>2019-03-31T08:18:30Z</time>
      </trkpt>
      <trkpt lat="42.70248" lon="0.54617">
        <ele>3026.118</ele>
        <time>2019-03-31T08:19:00Z</time>
      </trkpt>
      <trkpt lat="42.70246" lon="0.54619">
        <ele>3027.07</ele>
        <time>2019-03-31T08:19:30Z</time>
      </trkpt>
      <trkpt lat="42.70253" lon="0.54606">
        <ele>3024.177</ele>
        <time>2019-03-31T08:20:00Z</time>
      </trkpt>
      <trkpt lat="42.70262" lon="0.54604">
        <ele>3016.59</ele>
        <time>2019-03-31T08:20:30Z</time>
      </trkpt>
      <trkpt lat="42.7027" lon="0.54606">
        <ele>3009.83</ele>
        <time>2019-03-31T08:21:00Z</time>
      </trkpt>
      <trkpt lat="42.70279" lon="0.54611">
        <ele>3002.881</ele>
        <time>2019-03-31T08:21:30Z</time>
      </trkpt>
      <trkpt lat="42.70281" lon="0.54612">
        <ele>3000.61</ele>
        <time>2019-03-31T08:22:00Z</time>
      </trkpt>
      <trkpt lat="42.70281" lon="0.54609">
        <ele>3000.688</ele>
        <time>2019-03-31T08:22:30Z</time>
      </trkpt>
      <trkpt lat="42.70285" lon="0.54607">
        <ele>2997.726</ele>
        <time>2019-03-31T08:23:00Z</time>
      </trkpt>
      <trkpt lat="42.70288" lon="0.54606">
        <ele>2994.427</ele>
        <time>2019-03-31T08:23:30Z</time>
      </trkpt>
      <trkpt lat="42.70298" lon="0.54606">
        <ele>2985.992</ele>
        <time>2019-03-31T08:24:00Z</time>
      </trkpt>
      <trkpt lat="42.70301" lon="0.54601">
        <ele>2982.693</ele>
        <time>2019-03-31T08:24:30Z</time>
      </trkpt>
      <trkpt lat="42.70313" lon="0.54596">
        <ele>2974.549</ele>
        <time>2019-03-31T08:25:00Z</time>
      </trkpt>
      <trkpt lat="42.70332" lon="0.54605">
        <ele>2961.743</ele>
        <time>2019-03-31T08:25:30Z</time>
      </trkpt>
      <trkpt lat="42.7035" lon="0.54614">
        <ele>2952.823</ele>
        <time>2019-03-31T08:26:00Z</time>
      </trkpt>
      <trkpt lat="42.70357" lon="0.5462">
        <ele>2948.067</ele>
        <time>2019-03-31T08:26:30Z</time>
      </trkpt>
      <trkpt lat="42.70356" lon="0.5462">
        <ele>2948.155</ele>
        <time>2019-03-31T08:27:00Z</time>
      </trkpt>
      <trkpt lat="42.70355" lon="0.5462">
        <ele>2948.204</ele>
        <time>2019-03-31T08:27:30Z</time>
      </trkpt>
      <trkpt lat="42.70354" lon="0.54618">
        <ele>2949.326</ele>
        <time>2019-03-31T08:28:00Z</time>
      </trkpt>
      <trkpt lat="42.70354" lon="0.54619">
        <ele>2949.271</ele>
        <time>2019-03-31T08:28:30Z</time>
      </trkpt>
      <trkpt lat="42.70352" lon="0.54619">
        <ele>2949.943</ele>
        <time>2019-03-31T08:29:00Z</time>
      </trkpt>
      <trkpt lat="42.70352" lon="0.54619">
        <ele>2950.038</ele>
        <time>2019-03-31T08:29:30Z</time>
      </trkpt>
      <trkpt lat="42.70351" lon="0.54619">
        <ele>2950.219</ele>
        <time>2019-03-31T08:30:00Z</time>
      </trkpt>
      <trkpt lat="42.70351" lon="0.54618">
        <ele>2950.626</ele>
        <time>2019-03-31T08:30:30Z</time>
      </trkpt>
      <trkpt lat="42.70351" lon="0.54618">
        <ele>2950.551</ele>
        <time>2019-03-31T08:31:00Z</time>
      </trkpt>
      <trkpt lat="42.70352" lon="0.54618">
        <ele>2950.335</ele>
        <time>2019-03-31T08:31:30Z</time>
      </trkpt>
      <trkpt lat="42.70352" lon="0.54619">
        <ele>2949.71</ele>
        <time>2019-03-31T08:32:00Z</time>
      </trkpt>
      <trkpt lat="42.70351" lon="0.5462">
        <ele>2949.698</ele>
        <time>2019-03-31T08:32:30Z</time>
      </trkpt>
      <trkpt lat="42.70351" lon="0.5462">
        <ele>2949.826</ele>
        <time>2019-03-31T08:33:00Z</time>
      </trkpt>
      <trkpt lat="42.70351" lon="0.54619">
        <ele>2949.953</ele>
        <time>2019-03-31T08:33:30Z</time>
      </trkpt>
      <trkpt lat="42.70351" lon="0.54619">
        <ele>2949.953</ele>
        <time>2019-03-31T08:34:00Z</time>
      </trkpt>
      <trkpt lat="42.70351" lon="0.5462">
        <ele>2949.931</ele>
        <time>2019-03-31T08:34:30Z</time>
      </trkpt>
      <trkpt lat="42.7035" lon="0.5462">
        <ele>2949.939</ele>
        <time>2019-03-31T08:35:00Z</time>
      </trkpt>
      <trkpt lat="42.70359" lon="0.5462">
        <ele>2947.3</ele>
        <time>2019-03-31T08:35:30Z</time>
      </trkpt>
      <trkpt lat="42.70362" lon="0.54625">
        <ele>2944.125</ele>
        <time>2019-03-31T08:36:00Z</time>
      </trkpt>
      <trkpt lat="42.70361" lon="0.5463">
        <ele>2942.769</ele>
        <time>2019-03-31T08:36:30Z</time>
      </trkpt>
      <trkpt lat="42.70364" lon="0.54637">
        <ele>2938.918</ele>
        <time>2019-03-31T08:37:00Z</time>
      </trkpt>
      <trkpt lat="42.70362" lon="0.54646">
        <ele>2934.572</ele>
        <time>2019-03-31T08:37:30Z</time>
      </trkpt>
      <trkpt lat="42.70367" lon="0.54662">
        <ele>2924.226</ele>
        <time>2019-03-31T08:38:00Z</time>
      </trkpt>
      <trkpt lat="42.70373" lon="0.54697">
        <ele>2907.158</ele>
        <time>2019-03-31T08:38:30Z</time>
      </trkpt>
      <trkpt lat="42.70374" lon="0.54715">
        <ele>2899.385</ele>
        <time>2019-03-31T08:39:00Z</time>
      </trkpt>
      <trkpt lat="42.70372" lon="0.54753">
        <ele>2882.753</ele>
        <time>2019-03-31T08:39:30Z</time>
      </trkpt>
      <trkpt lat="42.7036" lon="0.54777">
        <ele>2869.704</ele>
        <time>2019-03-31T08:40:00Z</time>
      </trkpt>
      <trkpt lat="42.70377" lon="0.54804">
        <ele>2854.856</ele>
        <time>2019-03-31T08:40:30Z</time>
      </trkpt>
      <trkpt lat="42.70397" lon="0.54815">
        <ele>2845.594</ele>
        <time>2019-03-31T08:41:00Z</time>
      </trkpt>
      <trkpt lat="42.70425" lon="0.54838">
        <ele>2830.705</ele>
        <time>2019-03-31T08:41:30Z</time>
      </trkpt>
      <trkpt lat="42.70447" lon="0.54858">
        <ele>2824.372</ele>
        <time>2019-03-31T08:42:00Z</time>
      </trkpt>
      <trkpt lat="42.70468" lon="0.54885">
        <ele>2816.461</ele>
        <time>2019-03-31T08:42:30Z</time>
      </trkpt>
      <trkpt lat="42.70493" lon="0.54915">
        <ele>2810.676</ele>
        <time>2019-03-31T08:43:00Z</time>
      </trkpt>
      <trkpt lat="42.70518" lon="0.54947">
        <ele>2803.555</ele>
        <time>2019-03-31T08:43:30Z</time>
      </trkpt>
      <trkpt lat="42.70548" lon="0.54982">
        <ele>2797.634</ele>
        <time>2019-03-31T08:44:00Z</time>
      </trkpt>
      <trkpt lat="42.70571" lon="0.55004">
        <ele>2795.207</ele>
        <time>2019-03-31T08:44:30Z</time>
      </trkpt>
      <trkpt lat="42.70566" lon="0.54998">
        <ele>2796.178</ele>
        <time>2019-03-31T08:45:00Z</time>
      </trkpt>
      <trkpt lat="42.70564" lon="0.54993">
        <ele>2797.698</ele>
        <time>2019-03-31T08:45:30Z</time>
      </trkpt>
      <trkpt lat="42.70563" lon="0.54997">
        <ele>2796.045</ele>
        <time>2019-03-31T08:46:00Z</time>
      </trkpt>
      <trkpt lat="42.70563" lon="0.54998">
        <ele>2795.906</ele>
        <time>2019-03-31T08:46:30Z</time>
      </trkpt>
      <trkpt lat="42.70562" lon="0.54994">
        <ele>2796.989</ele>
        <time>2019-03-31T08:47:00Z</time>
      </trkpt>
      <trkpt lat="42.70562" lon="0.54995">
        <ele>2796.803</ele>
        <time>2019-03-31T08:47:30Z</time>
      </trkpt>
      <trkpt lat="42.70562" lon="0.54993">
        <ele>2797.362</ele>
        <time>2019-03-31T08:48:00Z</time>
      </trkpt>
      <trkpt lat="42.70564" lon="0.54994">
        <ele>2797.314</ele>
        <time>2019-03-31T08:48:30Z</time>
      </trkpt>
      <trkpt lat="42.70559" lon="0.54993">
        <ele>2797.066</ele>
        <time>2019-03-31T08:49:00Z</time>
      </trkpt>
      <trkpt lat="42.7056" lon="0.54993">
        <ele>2797.252</ele>
        <time>2019-03-31T08:49:30Z</time>
      </trkpt>
      <trkpt lat="42.70559" lon="0.54995">
        <ele>2796.366</ele>
        <time>2019-03-31T08:50:00Z</time>
      </trkpt>
      <trkpt lat="42.70562" lon="0.54992">
        <ele>2797.939</ele>
        <time>2019-03-31T08:50:30Z</time>
      </trkpt>
      <trkpt lat="42.70558" lon="0.55008">
        <ele>2791.926</ele>
        <time>2019-03-31T08:51:00Z</time>
      </trkpt>
      <trkpt lat="42.70563" lon="0.55001">
        <ele>2794.714</ele>
        <time>2019-03-31T08:51:30Z</time>
      </trkpt>
      <trkpt lat="42.70584" lon="0.55012">
        <ele>2795.48</ele>
        <time>2019-03-31T08:52:00Z</time>
      </trkpt>
      <trkpt lat="42.70622" lon="0.55033">
        <ele>2779.493</ele>
        <time>2019-03-31T08:52:30Z</time>
      </trkpt>
      <trkpt lat="42.7065" lon="0.55056">
        <ele>2767.893</ele>
        <time>2019-03-31T08:53:00Z</time>
      </trkpt>
      <trkpt lat="42.70679" lon="0.55067">
        <ele>2758.374</ele>
        <time>2019-03-31T08:53:30Z</time>
      </trkpt>
      <trkpt lat="42.70706" lon="0.55083">
        <ele>2746.969</ele>
        <time>2019-03-31T08:54:00Z</time>
      </trkpt>
      <trkpt lat="42.70722" lon="0.55084">
        <ele>2740.144</ele>
        <time>2019-03-31T08:54:30Z</time>
      </trkpt>
      <trkpt lat="42.70751" lon="0.55079">
        <ele>2725.915</ele>
        <time>2019-03-31T08:55:00Z</time>
      </trkpt>
      <trkpt lat="42.7077" lon="0.55095">
        <ele>2712.911</ele>
        <time>2019-03-31T08:55:30Z</time>
      </trkpt>
      <trkpt lat="42.70792" lon="0.55105">
        <ele>2700.548</ele>
        <time>2019-03-31T08:56:00Z</time>
      </trkpt>
      <trkpt lat="42.70812" lon="0.55097">
        <ele>2687.812</ele>
        <time>2019-03-31T08:56:30Z</time>
      </trkpt>
      <trkpt lat="42.70823" lon="0.55087">
        <ele>2679.486</ele>
        <time>2019-03-31T08:57:00Z</time>
      </trkpt>
      <trkpt lat="42.70842" lon="0.5508">
        <ele>2667.494</ele>
        <time>2019-03-31T08:57:30Z</time>
      </trkpt>
      <trkpt lat="42.70852" lon="0.55075">
        <ele>2660.9</ele>
        <time>2019-03-31T08:58:00Z</time>
      </trkpt>
      <trkpt lat="42.70853" lon="0.55076">
        <ele>2660.481</ele>
        <time>2019-03-31T08:58:30Z</time>
      </trkpt>
      <trkpt lat="42.70858" lon="0.55073">
        <ele>2657.8</ele>
        <time>2019-03-31T08:59:00Z</time>
      </trkpt>
      <trkpt lat="42.70873" lon="0.55064">
        <ele>2650.698</ele>
        <time>2019-03-31T08:59:30Z</time>
      </trkpt>
      <trkpt lat="42.70885" lon="0.55052">
        <ele>2645.995</ele>
        <time>2019-03-31T09:00:00Z</time>
      </trkpt>
      <trkpt lat="42.70907" lon="0.5505">
        <ele>2636.646</ele>
        <time>2019-03-31T09:00:30Z</time>
      </trkpt>
      <trkpt lat="42.70927" lon="0.55037">
        <ele>2627.991</ele>
        <time>2019-03-31T09:01:00Z</time>
      </trkpt>
      <trkpt lat="42.70926" lon="0.55035">
        <ele>2628.212</ele>
        <time>2019-03-31T09:01:30Z</time>
      </trkpt>
      <trkpt lat="42.70927" lon="0.5502">
        <ele>2627.12</ele>
        <time>2019-03-31T09:02:00Z</time>
      </trkpt>
      <trkpt lat="42.70956" lon="0.55007">
        <ele>2618.768</ele>
        <time>2019-03-31T09:02:30Z</time>
      </trkpt>
      <trkpt lat="42.70982" lon="0.54987">
        <ele>2613.187</ele>
        <time>2019-03-31T09:03:00Z</time>
      </trkpt>
      <trkpt lat="42.71008" lon="0.54983">
        <ele>2605.182</ele>
        <time>2019-03-31T09:03:30Z</time>
      </trkpt>
      <trkpt lat="42.71035" lon="0.54989">
        <ele>2598.598</ele>
        <time>2019-03-31T09:04:00Z</time>
      </trkpt>
      <trkpt lat="42.71064" lon="0.55001">
        <ele>2594.461</ele>
        <time>2019-03-31T09:04:30Z</time>
      </trkpt>
      <trkpt lat="42.71086" lon="0.54972">
        <ele>2589.666</ele>
        <time>2019-03-31T09:05:00Z</time>
      </trkpt>
      <trkpt lat="42.71116" lon="0.54971">
        <ele>2584.804</ele>
        <time>2019-03-31T09:05:30Z</time>
      </trkpt>
      <trkpt lat="42.71141" lon="0.54965">
        <ele>2573.148</ele>
        <time>2019-03-31T09:06:00Z</time>
      </trkpt>
      <trkpt lat="42.71162" lon="0.54958">
        <ele>2564.022</ele>
        <time>2019-03-31T09:06:30Z</time>
      </trkpt>
      <trkpt lat="42.71195" lon="0.54955">
        <ele>2549.757</ele>
        <time>2019-03-31T09:07:00Z</time>
      </trkpt>
      <trkpt lat="42.71227" lon="0.54939">
        <ele>2534.135</ele>
        <time>2019-03-31T09:07:30Z</time>
      </trkpt>
      <trkpt lat="42.71245" lon="0.54922">
        <ele>2526.103</ele>
        <time>2019-03-31T09:08:00Z</time>
      </trkpt>
      <trkpt lat="42.71267" lon="0.54905">
        <ele>2517.976</ele>
        <time>2019-03-31T09:08:30Z</time>
      </trkpt>
      <trkpt lat="42.71267" lon="0.54906">
        <ele>2517.898</ele>
        <time>2019-03-31T09:09:00Z</time>
      </trkpt>
      <trkpt lat="42.71273" lon="0.54903">
        <ele>2515.084</ele>
        <time>2019-03-31T09:09:30Z</time>
      </trkpt>
      <trkpt lat="42.71276" lon="0.54901">
        <ele>2514.004</ele>
        <time>2019-03-31T09:10:00Z</time>
      </trkpt>
      <trkpt lat="42.71273" lon="0.54901">
        <ele>2515.978</ele>
        <time>2019-03-31T09:10:30Z</time>
      </trkpt>
      <trkpt lat="42.7129" lon="0.5491">
        <ele>2501.517</ele>
        <time>2019-03-31T09:11:00Z</time>
      </trkpt>
      <trkpt lat="42.7134" lon="0.54954">
        <ele>2452.744</ele>
        <time>2019-03-31T09:11:30Z</time>
      </trkpt>
      <trkpt lat="42.71378" lon="0.5498">
        <ele>2438.92</ele>
        <time>2019-03-31T09:12:00Z</time>
      </trkpt>
      <trkpt lat="42.71977" lon="0.55765">
        <ele>2008.302</ele>
        <time>2019-03-31T10:57:45.3Z</time>
      </trkpt>
      <trkpt lat="42.71979" lon="0.55794">
        <ele>1994.137</ele>
        <time>2019-03-31T10:58:15Z</time>
      </trkpt>
      <trkpt lat="42.7198" lon="0.55815">
        <ele>1982.661</ele>
        <time>2019-03-31T10:58:45Z</time>
      </trkpt>
      <trkpt lat="42.71981" lon="0.55825">
        <ele>1977.216</ele>
        <time>2019-03-31T10:59:15Z</time>
      </trkpt>
      <trkpt lat="42.71986" lon="0.55864">
        <ele>1955.33</ele>
        <time>2019-03-31T10:59:45Z</time>
      </trkpt>
      <trkpt lat="42.71981" lon="0.55886">
        <ele>1947.428</ele>
        <time>2019-03-31T11:00:15Z</time>
      </trkpt>
      <trkpt lat="42.72013" lon="0.55976">
        <ele>1891.858</ele>
        <time>2019-03-31T11:00:45Z</time>
      </trkpt>
      <trkpt lat="42.72028" lon="0.56003">
        <ele>1877.088</ele>
        <time>2019-03-31T11:01:15Z</time>
      </trkpt>
      <trkpt lat="42.72035" lon="0.5601">
        <ele>1873.604</ele>
        <time>2019-03-31T11:01:45Z</time>
      </trkpt>
      <trkpt lat="42.72036" lon="0.56013">
        <ele>1872.724</ele>
        <time>2019-03-31T11:02:15Z</time>
      </trkpt>
      <trkpt lat="42.72036" lon="0.56018">
        <ele>1872.068</ele>
        <time>2019-03-31T11:02:45Z</time>
      </trkpt>
      <trkpt lat="42.72045" lon="0.56014">
        <ele>1868.459</ele>
        <time>2019-03-31T11:03:15Z</time>
      </trkpt>
      <trkpt lat="42.72083" lon="0.56053">
        <ele>1843.811</ele>
        <time>2019-03-31T11:03:45Z</time>
      </trkpt>
      <trkpt lat="42.72095" lon="0.56058">
        <ele>1839.79</ele>
        <time>2019-03-31T11:04:15Z</time>
      </trkpt>
      <trkpt lat="42.72105" lon="0.56054">
        <ele>1837.92</ele>
        <time>2019-03-31T11:04:45Z</time>
      </trkpt>
      <trkpt lat="42.72105" lon="0.56058">
        <ele>1836.895</ele>
        <time>2019-03-31T11:05:15Z</time>
      </trkpt>
      <trkpt lat="42.72104" lon="0.56066">
        <ele>1835.572</ele>
        <time>2019-03-31T11:05:45Z</time>
      </trkpt>
      <trkpt lat="42.72103" lon="0.56065">
        <ele>1836.07</ele>
        <time>2019-03-31T11:06:15Z</time>
      </trkpt>
      <trkpt lat="42.72097" lon="0.56077">
        <ele>1835.24</ele>
        <time>2019-03-31T11:06:45Z</time>
      </trkpt>
      <trkpt lat="42.72091" lon="0.56104">
        <ele>1832.895</ele>
        <time>2019-03-31T11:07:15Z</time>
      </trkpt>
      <trkpt lat="42.72081" lon="0.56175">
        <ele>1805.47</ele>
        <time>2019-03-31T11:07:45Z</time>
      </trkpt>
      <trkpt lat="42.72075" lon="0.56203">
        <ele>1794.713</ele>
        <time>2019-03-31T11:08:15Z</time>
      </trkpt>
      <trkpt lat="42.7208" lon="0.56204">
        <ele>1788.381</ele>
        <time>2019-03-31T11:08:45Z</time>
      </trkpt>
      <trkpt lat="42.72086" lon="0.56208">
        <ele>1781.45</ele>
        <time>2019-03-31T11:09:15Z</time>
      </trkpt>
      <trkpt lat="42.7209" lon="0.56271">
        <ele>1752.469</ele>
        <time>2019-03-31T11:09:45Z</time>
      </trkpt>
      <trkpt lat="42.7209" lon="0.56282">
        <ele>1749.007</ele>
        <time>2019-03-31T11:10:15Z</time>
      </trkpt>
      <trkpt lat="42.72089" lon="0.56285">
        <ele>1748.039</ele>
        <time>2019-03-31T11:10:45Z</time>
      </trkpt>
      <trkpt lat="42.72083" lon="0.56285">
        <ele>1747.549</ele>
        <time>2019-03-31T11:11:15Z</time>
      </trkpt>
      <trkpt lat="42.72089" lon="0.56285">
        <ele>1747.985</ele>
        <time>2019-03-31T11:11:45Z</time>
      </trkpt>
      <trkpt lat="42.72082" lon="0.56284">
        <ele>1748.005</ele>
        <time>2019-03-31T11:12:15Z</time>
      </trkpt>
      <trkpt lat="42.72075" lon="0.56292">
        <ele>1749.836</ele>
        <time>2019-03-31T11:12:45Z</time>
      </trkpt>
      <trkpt lat="42.72073" lon="0.56289">
        <ele>1752.06</ele>
        <time>2019-03-31T11:13:15Z</time>
      </trkpt>
      <trkpt lat="42.72084" lon="0.56286">
        <ele>1746.755</ele>
        <time>2019-03-31T11:13:45Z</time>
      </trkpt>
      <trkpt lat="42.72082" lon="0.56289">
        <ele>1746.703</ele>
        <time>2019-03-31T11:14:15Z</time>
      </trkpt>
      <trkpt lat="42.72089" lon="0.56294">
        <ele>1745.064</ele>
        <time>2019-03-31T11:14:45Z</time>
      </trkpt>
      <trkpt lat="42.72094" lon="0.56318">
        <ele>1739.01</ele>
        <time>2019-03-31T11:15:15Z</time>
      </trkpt>
      <trkpt lat="42.72103" lon="0.56341">
        <ele>1734.55</ele>
        <time>2019-03-31T11:15:45Z</time>
      </trkpt>
      <trkpt lat="42.72116" lon="0.56393">
        <ele>1728.021</ele>
        <time>2019-03-31T11:16:15Z</time>
      </trkpt>
      <trkpt lat="42.72108" lon="0.56445">
        <ele>1722.996</ele>
        <time>2019-03-31T11:16:45Z</time>
      </trkpt>
      <trkpt lat="42.72102" lon="0.56493">
        <ele>1718.777</ele>
        <time>2019-03-31T11:17:15Z</time>
      </trkpt>
      <trkpt lat="42.72083" lon="0.56541">
        <ele>1709.608</ele>
        <time>2019-03-31T11:17:45Z</time>
      </trkpt>
      <trkpt lat="42.72061" lon="0.56572">
        <ele>1702.639</ele>
        <time>2019-03-31T11:18:15Z</time>
      </trkpt>
      <trkpt lat="42.72041" lon="0.56616">
        <ele>1701.61</ele>
        <time>2019-03-31T11:18:45Z</time>
      </trkpt>
      <trkpt lat="42.72034" lon="0.56652">
        <ele>1698.837</ele>
        <time>2019-03-31T11:19:15Z</time>
      </trkpt>
      <trkpt lat="42.72026" lon="0.56689">
        <ele>1694.874</ele>
        <time>2019-03-31T11:19:45Z</time>
      </trkpt>
      <trkpt lat="42.72024" lon="0.56731">
        <ele>1690.195</ele>
        <time>2019-03-31T11:20:15Z</time>
      </trkpt>
      <trkpt lat="42.72028" lon="0.56755">
        <ele>1686.631</ele>
        <time>2019-03-31T11:20:45Z</time>
      </trkpt>
      <trkpt lat="42.72025" lon="0.56785">
        <ele>1685.188</ele>
        <time>2019-03-31T11:21:15Z</time>
      </trkpt>
      <trkpt lat="42.72012" lon="0.56792">
        <ele>1686.502</ele>
        <time>2019-03-31T11:21:45Z</time>
      </trkpt>
      <trkpt lat="42.72008" lon="0.56829">
        <ele>1686.494</ele>
        <time>2019-03-31T11:22:15Z</time>
      </trkpt>
      <trkpt lat="42.72008" lon="0.56866">
        <ele>1687.045</ele>
        <time>2019-03-31T11:22:45Z</time>
      </trkpt>
      <trkpt lat="42.72001" lon="0.56915">
        <ele>1684.826</ele>
        <time>2019-03-31T11:23:15Z</time>
      </trkpt>
      <trkpt lat="42.71999" lon="0.56947">
        <ele>1683.089</ele>
        <time>2019-03-31T11:23:45.1Z</time>
      </trkpt>
      <trkpt lat="42.71994" lon="0.56977">
        <ele>1683.015</ele>
        <time>2019-03-31T11:24:15Z</time>
      </trkpt>
      <trkpt lat="42.72" lon="0.57016">
        <ele>1686.88</ele>
        <time>2019-03-31T11:24:45Z</time>
      </trkpt>
      <trkpt lat="42.72029" lon="0.57037">
        <ele>1686.189</ele>
        <time>2019-03-31T11:25:15Z</time>
      </trkpt>
      <trkpt lat="42.72038" lon="0.57074">
        <ele>1687.792</ele>
        <time>2019-03-31T11:25:45Z</time>
      </trkpt>
      <trkpt lat="42.72031" lon="0.57071">
        <ele>1692.971</ele>
        <time>2019-03-31T11:26:15Z</time>
      </trkpt>
      <trkpt lat="42.72034" lon="0.57078">
        <ele>1692.211</ele>
        <time>2019-03-31T11:26:45Z</time>
      </trkpt>
      <trkpt lat="42.72029" lon="0.57114">
        <ele>1691.685</ele>
        <time>2019-03-31T11:27:15Z</time>
      </trkpt>
      <trkpt lat="42.72025" lon="0.57148">
        <ele>1686.571</ele>
        <time>2019-03-31T11:27:45Z</time>
      </trkpt>
      <trkpt lat="42.72033" lon="0.5713">
        <ele>1684.992</ele>
        <time>2019-03-31T11:28:15Z</time>
      </trkpt>
      <trkpt lat="42.72038" lon="0.57115">
        <ele>1684.453</ele>
        <time>2019-03-31T11:28:45Z</time>
      </trkpt>
      <trkpt lat="42.7206" lon="0.57084">
        <ele>1668.195</ele>
        <time>2019-03-31T11:29:15Z</time>
      </trkpt>
      <trkpt lat="42.72093" lon="0.57053">
        <ele>1646.198</ele>
        <time>2019-03-31T11:29:45Z</time>
      </trkpt>
      <trkpt lat="42.72105" lon="0.5705">
        <ele>1645.182</ele>
        <time>2019-03-31T11:30:15Z</time>
      </trkpt>
      <trkpt lat="42.72105" lon="0.5705">
        <ele>1645.041</ele>
        <time>2019-03-31T11:30:45Z</time>
      </trkpt>
      <trkpt lat="42.72106" lon="0.57049">
        <ele>1644.82</ele>
        <time>2019-03-31T11:31:15Z</time>
      </trkpt>
      <trkpt lat="42.72106" lon="0.57051">
        <ele>1645.478</ele>
        <time>2019-03-31T11:31:45Z</time>
      </trkpt>
      <trkpt lat="42.72103" lon="0.57051">
        <ele>1645.541</ele>
        <time>2019-03-31T11:32:15Z</time>
      </trkpt>
      <trkpt lat="42.72104" lon="0.57054">
        <ele>1646.283</ele>
        <time>2019-03-31T11:32:45Z</time>
      </trkpt>
      <trkpt lat="42.72101" lon="0.57051">
        <ele>1645.652</ele>
        <time>2019-03-31T11:33:15Z</time>
      </trkpt>
      <trkpt lat="42.72102" lon="0.5705">
        <ele>1645.412</ele>
        <time>2019-03-31T11:33:45Z</time>
      </trkpt>
      <trkpt lat="42.72103" lon="0.57047">
        <ele>1644.476</ele>
        <time>2019-03-31T11:34:15Z</time>
      </trkpt>
      <trkpt lat="42.72092" lon="0.57046">
        <ele>1645.819</ele>
        <time>2019-03-31T11:34:45Z</time>
      </trkpt>
      <trkpt lat="42.72094" lon="0.57053">
        <ele>1646.116</ele>
        <time>2019-03-31T11:35:15Z</time>
      </trkpt>
      <trkpt lat="42.72085" lon="0.57049">
        <ele>1646.639</ele>
        <time>2019-03-31T11:35:45Z</time>
      </trkpt>
      <trkpt lat="42.72092" lon="0.57054">
        <ele>1646.228</ele>
        <time>2019-03-31T11:36:15Z</time>
      </trkpt>
      <trkpt lat="42.72099" lon="0.57059">
        <ele>1648.282</ele>
        <time>2019-03-31T11:36:45Z</time>
      </trkpt>
      <trkpt lat="42.72097" lon="0.57054">
        <ele>1646.249</ele>
        <time>2019-03-31T11:37:15Z</time>
      </trkpt>
      <trkpt lat="42.72107" lon="0.57036">
        <ele>1640.62</ele>
        <time>2019-03-31T11:37:45Z</time>
      </trkpt>
      <trkpt lat="42.72128" lon="0.57002">
        <ele>1633.999</ele>
        <time>2019-03-31T11:38:15Z</time>
      </trkpt>
      <trkpt lat="42.7214" lon="0.56983">
        <ele>1627.075</ele>
        <time>2019-03-31T11:38:45Z</time>
      </trkpt>
      <trkpt lat="42.72151" lon="0.56969">
        <ele>1626.436</ele>
        <time>2019-03-31T11:39:15Z</time>
      </trkpt>
      <trkpt lat="42.72159" lon="0.56958">
        <ele>1625.914</ele>
        <time>2019-03-31T11:39:45Z</time>
      </trkpt>
      <trkpt lat="42.72162" lon="0.56933">
        <ele>1613.826</ele>
        <time>2019-03-31T11:40:15Z</time>
      </trkpt>
      <trkpt lat="42.72171" lon="0.56901">
        <ele>1598.692</ele>
        <time>2019-03-31T11:40:45Z</time>
      </trkpt>
      <trkpt lat="42.72183" lon="0.56882">
        <ele>1592.083</ele>
        <time>2019-03-31T11:41:15Z</time>
      </trkpt>
      <trkpt lat="42.7221" lon="0.56884">
        <ele>1592.343</ele>
        <time>2019-03-31T11:41:45Z</time>
      </trkpt>
      <trkpt lat="42.72209" lon="0.56872">
        <ele>1585.371</ele>
        <time>2019-03-31T11:42:15Z</time>
      </trkpt>
      <trkpt lat="42.72228" lon="0.56866">
        <ele>1582.586</ele>
        <time>2019-03-31T11:42:45Z</time>
      </trkpt>
      <trkpt lat="42.72246" lon="0.56835">
        <ele>1566.216</ele>
        <time>2019-03-31T11:43:15Z</time>
      </trkpt>
      <trkpt lat="42.72254" lon="0.5681">
        <ele>1553.398</ele>
        <time>2019-03-31T11:43:45Z</time>
      </trkpt>
      <trkpt lat="42.72266" lon="0.56801">
        <ele>1552.406</ele>
        <time>2019-03-31T11:44:15Z</time>
      </trkpt>
      <trkpt lat="42.72284" lon="0.5677">
        <ele>1541.112</ele>
        <time>2019-03-31T11:44:45Z</time>
      </trkpt>
      <trkpt lat="42.72308" lon="0.56769">
        <ele>1543.074</ele>
        <time>2019-03-31T11:45:15Z</time>
      </trkpt>
      <trkpt lat="42.72335" lon="0.56752">
        <ele>1530.855</ele>
        <time>2019-03-31T11:45:45Z</time>
      </trkpt>
      <trkpt lat="42.72356" lon="0.56735">
        <ele>1521.85</ele>
        <time>2019-03-31T11:46:15Z</time>
      </trkpt>
      <trkpt lat="42.72372" lon="0.56725">
        <ele>1522.114</ele>
        <time>2019-03-31T11:46:45Z</time>
      </trkpt>
      <trkpt lat="42.72395" lon="0.5671">
        <ele>1521.401</ele>
        <time>2019-03-31T11:47:15Z</time>
      </trkpt>
      <trkpt lat="42.72419" lon="0.56684">
        <ele>1514.226</ele>
        <time>2019-03-31T11:47:45Z</time>
      </trkpt>
      <trkpt lat="42.72436" lon="0.56667">
        <ele>1504.1</ele>
        <time>2019-03-31T11:48:15Z</time>
      </trkpt>
      <trkpt lat="42.72463" lon="0.56652">
        <ele>1496.998</ele>
        <time>2019-03-31T11:48:45Z</time>
      </trkpt>
      <trkpt lat="42.72483" lon="0.56616">
        <ele>1486.458</ele>
        <time>2019-03-31T11:49:15Z</time>
      </trkpt>
      <trkpt lat="42.72503" lon="0.56584">
        <ele>1477.523</ele>
        <time>2019-03-31T11:49:45Z</time>
      </trkpt>
      <trkpt lat="42.72529" lon="0.56565">
        <ele>1473.784</ele>
        <time>2019-03-31T11:50:15Z</time>
      </trkpt>
      <trkpt lat="42.72561" lon="0.56537">
        <ele>1469.249</ele>
        <time>2019-03-31T11:50:45Z</time>
      </trkpt>
      <trkpt lat="42.72593" lon="0.56514">
        <ele>1468.952</ele>
        <time>2019-03-31T11:51:15Z</time>
      </trkpt>
      <trkpt lat="42.72626" lon="0.56487">
        <ele>1465.316</ele>
        <time>2019-03-31T11:51:45Z</time>
      </trkpt>
      <trkpt lat="42.72654" lon="0.56464">
        <ele>1464.806</ele>
        <time>2019-03-31T11:52:15Z</time>
      </trkpt>
      <trkpt lat="42.72685" lon="0.5645">
        <ele>1467.432</ele>
        <time>2019-03-31T11:52:45Z</time>
      </trkpt>
      <trkpt lat="42.72712" lon="0.56423">
        <ele>1462.84</ele>
        <time>2019-03-31T11:53:15Z</time>
      </trkpt>
      <trkpt lat="42.7274" lon="0.56386">
        <ele>1453.766</ele>
        <time>2019-03-31T11:53:45Z</time>
      </trkpt>
      <trkpt lat="42.72766" lon="0.56352">
        <ele>1444.703</ele>
        <time>2019-03-31T11:54:15Z</time>
      </trkpt>
      <trkpt lat="42.72788" lon="0.56314">
        <ele>1434.984</ele>
        <time>2019-03-31T11:54:45Z</time>
      </trkpt>
      <trkpt lat="42.72813" lon="0.5628">
        <ele>1424.823</ele>
        <time>2019-03-31T11:55:15Z</time>
      </trkpt>
      <trkpt lat="42.72842" lon="0.5625">
        <ele>1413.034</ele>
        <time>2019-03-31T11:55:45Z</time>
      </trkpt>
      <trkpt lat="42.72853" lon="0.56204">
        <ele>1404.377</ele>
        <time>2019-03-31T11:56:15Z</time>
      </trkpt>
      <trkpt lat="42.7286" lon="0.56152">
        <ele>1396.624</ele>
        <time>2019-03-31T11:56:45Z</time>
      </trkpt>
      <trkpt lat="42.72849" lon="0.56122">
        <ele>1397.23</ele>
        <time>2019-03-31T11:57:15Z</time>
      </trkpt>
      <trkpt lat="42.72847" lon="0.56085">
        <ele>1397.083</ele>
        <time>2019-03-31T11:57:45Z</time>
      </trkpt>
      <trkpt lat="42.72851" lon="0.56077">
        <ele>1397.443</ele>
        <time>2019-03-31T11:58:15Z</time>
      </trkpt>
      <trkpt lat="42.72856" lon="0.56059">
        <ele>1398.226</ele>
        <time>2019-03-31T11:58:45.1Z</time>
      </trkpt>
      <trkpt lat="42.72874" lon="0.56016">
        <ele>1400.804</ele>
        <time>2019-03-31T11:59:15Z</time>
      </trkpt>
      <trkpt lat="42.72887" lon="0.55972">
        <ele>1401.573</ele>
        <time>2019-03-31T11:59:45Z</time>
      </trkpt>
      <trkpt lat="42.72899" lon="0.55941">
        <ele>1405.192</ele>
        <time>2019-03-31T12:00:15Z</time>
      </trkpt>
      <trkpt lat="42.72927" lon="0.5592">
        <ele>1400.459</ele>
        <time>2019-03-31T12:00:45Z</time>
      </trkpt>
      <trkpt lat="42.72944" lon="0.55896">
        <ele>1398.891</ele>
        <time>2019-03-31T12:01:15Z</time>
      </trkpt>
      <trkpt lat="42.7296" lon="0.55858">
        <ele>1401.572</ele>
        <time>2019-03-31T12:01:45Z</time>
      </trkpt>
      <trkpt lat="42.72967" lon="0.55815">
        <ele>1405.931</ele>
        <time>2019-03-31T12:02:15Z</time>
      </trkpt>
      <trkpt lat="42.72979" lon="0.55775">
        <ele>1402.599</ele>
        <time>2019-03-31T12:02:45Z</time>
      </trkpt>
      <trkpt lat="42.72992" lon="0.55734">
        <ele>1411.694</ele>
        <time>2019-03-31T12:03:15Z</time>
      </trkpt>
      <trkpt lat="42.73008" lon="0.55702">
        <ele>1410.927</ele>
        <time>2019-03-31T12:03:45Z</time>
      </trkpt>
      <trkpt lat="42.73025" lon="0.55656">
        <ele>1408.688</ele>
        <time>2019-03-31T12:04:15Z</time>
      </trkpt>
      <trkpt lat="42.73038" lon="0.55612">
        <ele>1409.163</ele>
        <time>2019-03-31T12:04:45Z</time>
      </trkpt>
      <trkpt lat="42.73042" lon="0.55571">
        <ele>1407.825</ele>
        <time>2019-03-31T12:05:15Z</time>
      </trkpt>
      <trkpt lat="42.73031" lon="0.55528">
        <ele>1413.016</ele>
        <time>2019-03-31T12:05:45Z</time>
      </trkpt>
      <trkpt lat="42.73027" lon="0.55485">
        <ele>1409.564</ele>
        <time>2019-03-31T12:06:15Z</time>
      </trkpt>
      <trkpt lat="42.73035" lon="0.55449">
        <ele>1403.336</ele>
        <time>2019-03-31T12:06:45Z</time>
      </trkpt>
      <trkpt lat="42.73016" lon="0.55428">
        <ele>1413.871</ele>
        <time>2019-03-31T12:07:15Z</time>
      </trkpt>
      <trkpt lat="42.73016" lon="0.55386">
        <ele>1410.486</ele>
        <time>2019-03-31T12:07:45Z</time>
      </trkpt>
      <trkpt lat="42.73026" lon="0.55334">
        <ele>1403.105</ele>
        <time>2019-03-31T12:08:15Z</time>
      </trkpt>
      <trkpt lat="42.7303" lon="0.55309">
        <ele>1395.45</ele>
        <time>2019-03-31T12:08:45Z</time>
      </trkpt>
      <trkpt lat="42.7302" lon="0.55276">
        <ele>1402.89</ele>
        <time>2019-03-31T12:09:15Z</time>
      </trkpt>
      <trkpt lat="42.7301" lon="0.5523">
        <ele>1393.954</ele>
        <time>2019-03-31T12:09:45Z</time>
      </trkpt>
      <trkpt lat="42.72999" lon="0.55182">
        <ele>1386.285</ele>
        <time>2019-03-31T12:10:15Z</time>
      </trkpt>
      <trkpt lat="42.73022" lon="0.5517">
        <ele>1366.292</ele>
        <time>2019-03-31T12:10:45Z</time>
      </trkpt>
      <trkpt lat="42.73025" lon="0.55156">
        <ele>1360.89</ele>
        <time>2019-03-31T12:11:15Z</time>
      </trkpt>
      <trkpt lat="42.73027" lon="0.55133">
        <ele>1354.713</ele>
        <time>2019-03-31T12:11:45Z</time>
      </trkpt>
      <trkpt lat="42.73009" lon="0.55107">
        <ele>1358.347</ele>
        <time>2019-03-31T12:12:15Z</time>
      </trkpt>
      <trkpt lat="42.72998" lon="0.55068">
        <ele>1354.81</ele>
        <time>2019-03-31T12:12:45Z</time>
      </trkpt>
      <trkpt lat="42.72988" lon="0.55038">
        <ele>1350.292</ele>
        <time>2019-03-31T12:13:15Z</time>
      </trkpt>
      <trkpt lat="42.72994" lon="0.55009">
        <ele>1343.092</ele>
        <time>2019-03-31T12:13:45Z</time>
      </trkpt>
      <trkpt lat="42.72997" lon="0.55002">
        <ele>1341.388</ele>
        <time>2019-03-31T12:14:15Z</time>
      </trkpt>
      <trkpt lat="42.73575" lon="0.55354">
        <ele>1165.754</ele>
        <time>2019-03-31T13:13:24.6Z</time>
      </trkpt>
    </trkseg>
  </trk>
</gpx>